»·PEaware :: SKY702 KCLM-KFHR

SKY702 :: KCLM-KFHR

FLIGHT INFORMATION

Flight Status: Arrived
Operator:
Sky High Charters
More flights by this operator :: More flights under this callsign
Pilot: Dustin P. (9568)
Aircraft: CESSNA 182 SKYLANE
(C182)
More flights by this aircraft type
Origin: KCLM Fairchild Intl
United States
Destination: KFHR Friday Harbor
United States
More flights between these airports :: More routes between these airports
Route: WATTR7 WATTR
File this flight plan on PilotEdge
Remarks: SKYHIGH 3.1
Altitude:
(Current/Filed)
5,000ft
Speed:
(Current/Filed)
140kts
Departed: 18-Jun-19 09:24 AM
Arrived: 18-Jun-19 10:00 AM
Distance/Time
Traveled:
31nm/0:36
Distance/Time
To Go:
Arrived

Flight Plot

Page will automatically refresh every two minutes.

Flight plan parsing failed; only flown route is shown


Map Options




Map Legend


Flown Route
Filed Route
Departure Airport
Arrival Airport
Navaid (VOR, NDB)
Fix

Horizontal Profiles

Position Reports

Time Latitude Longitude Heading Altitude Ground
Speed
18-Jun-19 08:57 48.117195 -123.498953 111 294ft 0kts
18-Jun-19 08:58 48.117195 -123.498953 111 294ft 0kts
18-Jun-19 08:59 48.117195 -123.498951 111 294ft 0kts
18-Jun-19 09:00 48.117194 -123.498949 111 294ft 0kts
18-Jun-19 09:01 48.117194 -123.498946 111 294ft 0kts
18-Jun-19 09:02 48.117193 -123.498944 111 294ft 0kts
18-Jun-19 09:03 48.117192 -123.498941 111 294ft 0kts
18-Jun-19 09:04 48.117192 -123.498939 111 294ft 0kts
18-Jun-19 09:05 48.117191 -123.498937 111 294ft 0kts
18-Jun-19 09:06 48.117191 -123.498934 111 294ft 0kts
18-Jun-19 09:07 48.117190 -123.498932 111 294ft 0kts
18-Jun-19 09:08 48.117189 -123.498929 111 294ft 0kts
18-Jun-19 09:09 48.117189 -123.498927 111 294ft 0kts
18-Jun-19 09:10 48.117188 -123.498925 111 294ft 0kts
18-Jun-19 09:11 48.117187 -123.498922 111 294ft 0kts
18-Jun-19 09:12 48.117187 -123.498920 111 294ft 0kts
18-Jun-19 09:13 48.117186 -123.498917 111 294ft 0kts
18-Jun-19 09:14 48.117185 -123.498915 111 294ft 0kts
18-Jun-19 09:15 48.117256 -123.496984 82 294ft 12kts
18-Jun-19 09:16 48.116465 -123.490380 104 294ft 16kts
18-Jun-19 09:17 48.115830 -123.486640 319 294ft 0kts
18-Jun-19 09:18 48.115830 -123.486641 319 294ft 0kts
18-Jun-19 09:19 48.115838 -123.486650 319 294ft 0kts
18-Jun-19 09:20 48.115840 -123.486653 319 294ft 0kts
18-Jun-19 09:21 48.115841 -123.486654 319 294ft 0kts
18-Jun-19 09:22 48.116599 -123.486498 270 294ft 8kts
18-Jun-19 09:23 48.120371 -123.508246 288 797ft 72kts
18-Jun-19 09:24 48.136393 -123.517200 57 1689ft 97kts
18-Jun-19 09:25 48.135986 -123.479990 96 2769ft 80kts
18-Jun-19 09:26 48.133416 -123.445796 76 3547ft 90kts
18-Jun-19 09:27 48.139021 -123.409578 81 4340ft 92kts
18-Jun-19 09:28 48.138564 -123.370506 85 5013ft 105kts
18-Jun-19 09:29 48.137755 -123.316037 89 4980ft 148kts
18-Jun-19 09:30 48.135625 -123.254932 83 4963ft 152kts
18-Jun-19 09:31 48.138529 -123.192375 82 4996ft 150kts
18-Jun-19 09:32 48.139825 -123.128885 91 5044ft 156kts
18-Jun-19 09:33 48.139381 -123.066450 86 4964ft 148kts
18-Jun-19 09:34 48.142374 -123.006264 85 4996ft 143kts
18-Jun-19 09:35 48.139264 -122.945975 96 4999ft 144kts
18-Jun-19 09:36 48.159272 -122.916274 323 5048ft 125kts
18-Jun-19 09:37 48.192537 -122.933254 347 4963ft 134kts
18-Jun-19 09:38 48.226772 -122.951681 336 4974ft 130kts
18-Jun-19 09:39 48.260338 -122.969714 338 4993ft 130kts
18-Jun-19 09:40 48.294775 -122.987259 343 4992ft 131kts
18-Jun-19 09:41 48.330960 -122.996063 350 4989ft 132kts
18-Jun-19 09:42 48.367608 -123.002888 350 4981ft 132kts
18-Jun-19 09:43 48.403736 -123.008110 355 4975ft 133kts
18-Jun-19 09:44 48.440845 -123.009683 355 4998ft 132kts
18-Jun-19 09:45 48.477629 -123.013566 349 5003ft 132kts
18-Jun-19 09:46 48.513675 -123.024150 343 5001ft 132kts
18-Jun-19 09:48 48.533481 -122.995358 122 5000ft 145kts
18-Jun-19 09:49 48.499957 -123.000616 217 5011ft 134kts
18-Jun-19 09:50 48.466747 -123.018189 171 5007ft 133kts
18-Jun-19 09:51 48.431499 -123.012833 181 5005ft 132kts
18-Jun-19 09:52 48.401961 -122.979408 136 4623ft 140kts
18-Jun-19 09:53 48.371306 -122.960981 229 3584ft 126kts
18-Jun-19 09:54 48.382802 -122.998789 346 2608ft 117kts
18-Jun-19 09:55 48.414795 -123.004926 349 2322ft 122kts
18-Jun-19 09:56 48.444824 -123.011248 349 1499ft 92kts
18-Jun-19 09:57 48.471806 -123.013015 355 804ft 93kts
18-Jun-19 09:58 48.493489 -123.017365 320 874ft 74kts
18-Jun-19 09:59 48.512856 -123.023539 349 254ft 70kts
18-Jun-19 10:00 48.523462 -123.024689 312 108ft 3kts
18-Jun-19 10:01 48.524215 -123.025153 357 108ft 7kts
18-Jun-19 10:02 48.527129 -123.025890 358 108ft 9kts
18-Jun-19 10:03 48.527952 -123.026028 268 108ft 0kts
18-Jun-19 10:04 48.527952 -123.026028 268 108ft 0kts
18-Jun-19 10:04 48.527952 -123.026028 268 108ft 0kts
18-Jun-19 10:06 48.527952 -123.026028 268 108ft 0kts
18-Jun-19 10:07 48.527952 -123.026028 268 108ft 0kts
18-Jun-19 10:07 48.527952 -123.026028 268 108ft 0kts
18-Jun-19 10:08 48.527952 -123.026028 268 108ft 0kts
18-Jun-19 10:10 48.527952 -123.026028 268 108ft 0kts
18-Jun-19 10:10 48.527952 -123.026028 268 108ft 0kts
18-Jun-19 10:11 48.527952 -123.026028 268 108ft 0kts
18-Jun-19 10:13 48.527952 -123.026028 268 108ft 0kts
18-Jun-19 10:13 48.527952 -123.026028 268 108ft 0kts

Navigation Log

Ident Type
Flight plan parsing failed, navigation log unavailable